Terminal Aerodrome Forecast
Issued by NWS Melbourne, FL

Home | Current Version | Previous Version | Text Only | Print | Product List | Glossary On
Versions: 1 2 3 4 5 6 7 8 9 10 11 12 13 14 15 16 17 18
000
FTUS42 KMLB 251731
TAFDAB
TAF
KDAB 251731Z 2518/2618 25012KT P6SM SCT040 BKN060
     FM260000 25006KT P6SM SCT060
     FM260600 VRB02KT P6SM SKC
     FM261400 23007KT P6SM SCT050=

USA.gov is the U.S. government's official web portal to all federal, state and local government web resources and services.